sensor_id;sensor_type;location;lat;lon;timestamp;P1;durP1;ratioP1;P2;durP2;ratioP2
19940;SDS011;10132;50.864;5.176;2022-08-01T00:00:04;4.10;;;1.50;;
19940;SDS011;10132;50.864;5.176;2022-08-01T00:02:08;2.22;;;1.48;;
19940;SDS011;10132;50.864;5.176;2022-08-01T00:04:10;3.22;;;1.63;;
19940;SDS011;10132;50.864;5.176;2022-08-01T00:06:12;3.83;;;1.73;;
19940;SDS011;10132;50.864;5.176;2022-08-01T00:08:15;5.10;;;1.70;;
19940;SDS011;10132;50.864;5.176;2022-08-01T00:10:17;1.80;;;1.60;;
19940;SDS011;10132;50.864;5.176;2022-08-01T00:12:20;2.20;;;1.60;;
19940;SDS011;10132;50.864;5.176;2022-08-01T00:14:21;3.30;;;1.80;;
19940;SDS011;10132;50.864;5.176;2022-08-01T00:16:23;2.63;;;1.67;;
19940;SDS011;10132;50.864;5.176;2022-08-01T00:18:25;2.83;;;1.50;;
19940;SDS011;10132;50.864;5.176;2022-08-01T00:20:27;2.55;;;1.48;;
19940;SDS011;10132;50.864;5.176;2022-08-01T00:22:30;2.72;;;1.50;;
19940;SDS011;10132;50.864;5.176;2022-08-01T00:24:33;3.03;;;1.60;;
19940;SDS011;10132;50.864;5.176;2022-08-01T00:26:35;2.95;;;1.55;;
19940;SDS011;10132;50.864;5.176;2022-08-01T00:28:37;2.70;;;1.60;;
19940;SDS011;10132;50.864;5.176;2022-08-01T00:30:39;1.92;;;1.20;;
19940;SDS011;10132;50.864;5.176;2022-08-01T00:32:41;2.30;;;1.50;;
19940;SDS011;10132;50.864;5.176;2022-08-01T00:34:43;2.42;;;1.70;;
19940;SDS011;10132;50.864;5.176;2022-08-01T00:36:45;2.53;;;1.48;;
19940;SDS011;10132;50.864;5.176;2022-08-01T00:38:47;2.42;;;1.38;;
19940;SDS011;10132;50.864;5.176;2022-08-01T00:40:50;2.30;;;1.70;;
19940;SDS011;10132;50.864;5.176;2022-08-01T00:42:52;3.35;;;1.70;;
19940;SDS011;10132;50.864;5.176;2022-08-01T00:44:54;2.30;;;1.50;;
19940;SDS011;10132;50.864;5.176;2022-08-01T00:46:56;1.83;;;1.40;;
19940;SDS011;10132;50.864;5.176;2022-08-01T00:48:58;3.38;;;1.58;;
19940;SDS011;10132;50.864;5.176;2022-08-01T00:51:01;6.45;;;2.03;;
19940;SDS011;10132;50.864;5.176;2022-08-01T00:53:04;3.35;;;1.40;;
19940;SDS011;10132;50.864;5.176;2022-08-01T00:55:07;3.35;;;1.70;;
19940;SDS011;10132;50.864;5.176;2022-08-01T00:57:12;3.35;;;1.50;;
19940;SDS011;10132;50.864;5.176;2022-08-01T00:59:14;2.53;;;1.63;;
19940;SDS011;10132;50.864;5.176;2022-08-01T01:01:19;4.90;;;1.70;;
19940;SDS011;10132;50.864;5.176;2022-08-01T01:03:22;3.63;;;1.60;;
19940;SDS011;10132;50.864;5.176;2022-08-01T01:05:24;2.38;;;1.67;;
19940;SDS011;10132;50.864;5.176;2022-08-01T01:07:29;1.80;;;1.45;;
19940;SDS011;10132;50.864;5.176;2022-08-01T01:09:38;3.30;;;1.80;;
19940;SDS011;10132;50.864;5.176;2022-08-01T01:11:48;3.03;;;1.30;;
19940;SDS011;10132;50.864;5.176;2022-08-01T01:14:02;4.68;;;1.55;;
19940;SDS011;10132;50.864;5.176;2022-08-01T01:16:10;2.22;;;1.48;;
19940;SDS011;10132;50.864;5.176;2022-08-01T01:18:17;2.58;;;1.60;;
19940;SDS011;10132;50.864;5.176;2022-08-01T01:20:24;2.97;;;1.40;;
19940;SDS011;10132;50.864;5.176;2022-08-01T01:22:40;2.88;;;1.40;;
19940;SDS011;10132;50.864;5.176;2022-08-01T01:27:21;3.60;;;1.60;;
19940;SDS011;10132;50.864;5.176;2022-08-01T01:29:32;2.08;;;1.38;;
19940;SDS011;10132;50.864;5.176;2022-08-01T01:31:42;4.30;;;1.80;;
19940;SDS011;10132;50.864;5.176;2022-08-01T01:33:47;3.03;;;1.55;;
19940;SDS011;10132;50.864;5.176;2022-08-01T01:35:52;2.45;;;1.70;;
19940;SDS011;10132;50.864;5.176;2022-08-01T01:38:00;2.20;;;1.40;;
19940;SDS011;10132;50.864;5.176;2022-08-01T01:40:11;2.15;;;1.52;;
19940;SDS011;10132;50.864;5.176;2022-08-01T01:42:16;1.92;;;1.35;;
19940;SDS011;10132;50.864;5.176;2022-08-01T01:44:19;5.35;;;1.73;;
19940;SDS011;10132;50.864;5.176;2022-08-01T01:46:23;4.18;;;2.10;;
19940;SDS011;10132;50.864;5.176;2022-08-01T01:48:27;2.22;;;1.65;;
19940;SDS011;10132;50.864;5.176;2022-08-01T01:50:30;4.22;;;1.70;;
19940;SDS011;10132;50.864;5.176;2022-08-01T01:52:33;3.65;;;1.85;;
19940;SDS011;10132;50.864;5.176;2022-08-01T01:54:37;3.67;;;1.70;;
19940;SDS011;10132;50.864;5.176;2022-08-01T01:56:41;4.78;;;1.60;;
19940;SDS011;10132;50.864;5.176;2022-08-01T01:58:50;2.83;;;1.70;;
19940;SDS011;10132;50.864;5.176;2022-08-01T02:00:56;3.92;;;2.00;;
19940;SDS011;10132;50.864;5.176;2022-08-01T02:03:02;2.88;;;1.70;;
19940;SDS011;10132;50.864;5.176;2022-08-01T02:05:09;10.40;;;2.00;;
19940;SDS011;10132;50.864;5.176;2022-08-01T02:07:22;3.05;;;1.88;;
19940;SDS011;10132;50.864;5.176;2022-08-01T02:09:26;5.28;;;1.65;;
19940;SDS011;10132;50.864;5.176;2022-08-01T02:11:29;2.90;;;1.90;;
19940;SDS011;10132;50.864;5.176;2022-08-01T02:13:31;2.85;;;2.20;;
19940;SDS011;10132;50.864;5.176;2022-08-01T02:15:35;3.95;;;2.00;;
19940;SDS011;10132;50.864;5.176;2022-08-01T02:17:40;3.08;;;2.00;;
19940;SDS011;10132;50.864;5.176;2022-08-01T02:19:45;3.30;;;1.98;;
19940;SDS011;10132;50.864;5.176;2022-08-01T02:21:49;3.53;;;1.80;;
19940;SDS011;10132;50.864;5.176;2022-08-01T02:23:57;3.60;;;1.88;;
19940;SDS011;10132;50.864;5.176;2022-08-01T02:26:03;2.67;;;1.90;;
19940;SDS011;10132;50.864;5.176;2022-08-01T02:28:12;3.58;;;1.92;;
19940;SDS011;10132;50.864;5.176;2022-08-01T02:30:18;3.38;;;1.90;;
19940;SDS011;10132;50.864;5.176;2022-08-01T02:32:23;5.10;;;1.90;;
19940;SDS011;10132;50.864;5.176;2022-08-01T02:34:28;3.10;;;2.00;;
19940;SDS011;10132;50.864;5.176;2022-08-01T02:36:35;3.67;;;2.17;;
19940;SDS011;10132;50.864;5.176;2022-08-01T02:38:40;3.80;;;2.00;;
19940;SDS011;10132;50.864;5.176;2022-08-01T02:40:45;4.38;;;2.17;;
19940;SDS011;10132;50.864;5.176;2022-08-01T02:42:49;2.63;;;2.10;;
19940;SDS011;10132;50.864;5.176;2022-08-01T02:44:53;6.57;;;2.47;;
19940;SDS011;10132;50.864;5.176;2022-08-01T02:46:56;3.70;;;2.28;;
19940;SDS011;10132;50.864;5.176;2022-08-01T02:49:02;5.60;;;2.38;;
19940;SDS011;10132;50.864;5.176;2022-08-01T02:51:06;4.28;;;2.30;;
19940;SDS011;10132;50.864;5.176;2022-08-01T02:53:12;3.45;;;2.40;;
19940;SDS011;10132;50.864;5.176;2022-08-01T02:55:15;4.50;;;2.60;;
19940;SDS011;10132;50.864;5.176;2022-08-01T02:57:19;3.60;;;2.47;;
19940;SDS011;10132;50.864;5.176;2022-08-01T02:59:24;4.25;;;2.70;;
19940;SDS011;10132;50.864;5.176;2022-08-01T03:01:30;3.80;;;2.53;;
19940;SDS011;10132;50.864;5.176;2022-08-01T03:03:34;5.95;;;2.80;;
19940;SDS011;10132;50.864;5.176;2022-08-01T03:05:38;5.93;;;2.80;;
19940;SDS011;10132;50.864;5.176;2022-08-01T03:07:41;4.47;;;2.70;;
19940;SDS011;10132;50.864;5.176;2022-08-01T03:09:45;5.57;;;2.83;;
19940;SDS011;10132;50.864;5.176;2022-08-01T03:11:48;5.10;;;3.00;;
19940;SDS011;10132;50.864;5.176;2022-08-01T03:13:52;5.90;;;2.65;;
19940;SDS011;10132;50.864;5.176;2022-08-01T03:15:56;3.95;;;2.72;;
19940;SDS011;10132;50.864;5.176;2022-08-01T03:17:59;3.00;;;2.50;;
19940;SDS011;10132;50.864;5.176;2022-08-01T03:20:03;4.63;;;2.90;;
19940;SDS011;10132;50.864;5.176;2022-08-01T03:22:07;4.53;;;2.95;;
19940;SDS011;10132;50.864;5.176;2022-08-01T03:24:12;4.75;;;2.83;;
19940;SDS011;10132;50.864;5.176;2022-08-01T03:26:17;4.93;;;3.00;;
19940;SDS011;10132;50.864;5.176;2022-08-01T03:28:19;7.20;;;3.30;;
19940;SDS011;10132;50.864;5.176;2022-08-01T03:30:23;5.03;;;3.08;;
19940;SDS011;10132;50.864;5.176;2022-08-01T03:32:27;4.28;;;3.00;;
19940;SDS011;10132;50.864;5.176;2022-08-01T03:34:31;4.22;;;3.00;;
19940;SDS011;10132;50.864;5.176;2022-08-01T03:36:33;4.03;;;2.95;;
19940;SDS011;10132;50.864;5.176;2022-08-01T03:38:39;6.28;;;3.17;;
19940;SDS011;10132;50.864;5.176;2022-08-01T03:40:43;6.32;;;3.60;;
19940;SDS011;10132;50.864;5.176;2022-08-01T03:42:52;5.95;;;3.30;;
19940;SDS011;10132;50.864;5.176;2022-08-01T03:45:02;6.10;;;3.03;;
19940;SDS011;10132;50.864;5.176;2022-08-01T03:47:09;5.93;;;3.28;;
19940;SDS011;10132;50.864;5.176;2022-08-01T03:49:14;5.47;;;3.40;;
19940;SDS011;10132;50.864;5.176;2022-08-01T03:51:18;4.97;;;3.42;;
19940;SDS011;10132;50.864;5.176;2022-08-01T03:53:24;4.60;;;3.13;;
19940;SDS011;10132;50.864;5.176;2022-08-01T03:55:31;6.03;;;3.60;;
19940;SDS011;10132;50.864;5.176;2022-08-01T03:57:35;6.70;;;3.58;;
19940;SDS011;10132;50.864;5.176;2022-08-01T03:59:40;6.03;;;3.50;;
19940;SDS011;10132;50.864;5.176;2022-08-01T04:01:43;7.28;;;3.50;;
19940;SDS011;10132;50.864;5.176;2022-08-01T04:03:46;6.80;;;3.58;;
19940;SDS011;10132;50.864;5.176;2022-08-01T04:05:48;5.25;;;3.55;;
19940;SDS011;10132;50.864;5.176;2022-08-01T04:07:50;5.50;;;3.78;;
19940;SDS011;10132;50.864;5.176;2022-08-01T04:09:55;6.80;;;3.72;;
19940;SDS011;10132;50.864;5.176;2022-08-01T04:11:58;6.95;;;4.13;;
19940;SDS011;10132;50.864;5.176;2022-08-01T04:14:00;4.97;;;3.30;;
19940;SDS011;10132;50.864;5.176;2022-08-01T04:16:05;7.57;;;3.22;;
19940;SDS011;10132;50.864;5.176;2022-08-01T04:18:06;6.40;;;3.50;;
19940;SDS011;10132;50.864;5.176;2022-08-01T04:20:09;4.88;;;3.45;;
19940;SDS011;10132;50.864;5.176;2022-08-01T04:22:13;7.13;;;3.70;;
19940;SDS011;10132;50.864;5.176;2022-08-01T04:24:16;6.70;;;4.45;;
19940;SDS011;10132;50.864;5.176;2022-08-01T04:26:19;7.72;;;3.95;;
19940;SDS011;10132;50.864;5.176;2022-08-01T04:28:23;5.80;;;3.83;;
19940;SDS011;10132;50.864;5.176;2022-08-01T04:30:27;8.20;;;3.85;;
19940;SDS011;10132;50.864;5.176;2022-08-01T04:32:33;5.22;;;4.15;;
19940;SDS011;10132;50.864;5.176;2022-08-01T04:34:39;7.90;;;5.00;;
19940;SDS011;10132;50.864;5.176;2022-08-01T04:36:46;7.70;;;4.63;;
19940;SDS011;10132;50.864;5.176;2022-08-01T04:38:50;7.97;;;5.10;;
19940;SDS011;10132;50.864;5.176;2022-08-01T04:40:58;7.85;;;5.47;;
19940;SDS011;10132;50.864;5.176;2022-08-01T04:43:02;8.48;;;5.47;;
19940;SDS011;10132;50.864;5.176;2022-08-01T04:45:05;11.60;;;7.18;;
19940;SDS011;10132;50.864;5.176;2022-08-01T04:47:08;13.18;;;7.80;;
19940;SDS011;10132;50.864;5.176;2022-08-01T04:49:12;14.95;;;9.57;;
19940;SDS011;10132;50.864;5.176;2022-08-01T04:51:16;14.95;;;10.05;;
19940;SDS011;10132;50.864;5.176;2022-08-01T04:53:22;15.27;;;10.63;;
19940;SDS011;10132;50.864;5.176;2022-08-01T04:55:26;14.93;;;11.05;;
19940;SDS011;10132;50.864;5.176;2022-08-01T04:57:28;15.43;;;11.00;;
19940;SDS011;10132;50.864;5.176;2022-08-01T04:59:30;13.60;;;10.55;;
19940;SDS011;10132;50.864;5.176;2022-08-01T05:01:43;14.15;;;10.50;;
19940;SDS011;10132;50.864;5.176;2022-08-01T05:03:49;18.40;;;12.30;;
19940;SDS011;10132;50.864;5.176;2022-08-01T05:05:53;15.98;;;10.88;;
19940;SDS011;10132;50.864;5.176;2022-08-01T05:07:55;19.33;;;11.70;;
19940;SDS011;10132;50.864;5.176;2022-08-01T05:09:57;18.27;;;11.63;;
19940;SDS011;10132;50.864;5.176;2022-08-01T05:11:59;16.50;;;11.52;;
19940;SDS011;10132;50.864;5.176;2022-08-01T05:14:01;19.05;;;12.32;;
19940;SDS011;10132;50.864;5.176;2022-08-01T05:16:03;15.40;;;11.57;;
19940;SDS011;10132;50.864;5.176;2022-08-01T05:18:07;21.58;;;13.00;;
19940;SDS011;10132;50.864;5.176;2022-08-01T05:20:10;17.95;;;12.63;;
19940;SDS011;10132;50.864;5.176;2022-08-01T05:22:13;17.88;;;13.30;;
19940;SDS011;10132;50.864;5.176;2022-08-01T05:24:15;20.58;;;13.52;;
19940;SDS011;10132;50.864;5.176;2022-08-01T05:26:17;20.73;;;14.18;;
19940;SDS011;10132;50.864;5.176;2022-08-01T05:28:19;18.08;;;14.10;;
19940;SDS011;10132;50.864;5.176;2022-08-01T05:30:21;20.88;;;14.02;;
19940;SDS011;10132;50.864;5.176;2022-08-01T05:32:23;20.45;;;13.50;;
19940;SDS011;10132;50.864;5.176;2022-08-01T05:34:25;25.85;;;14.60;;
19940;SDS011;10132;50.864;5.176;2022-08-01T05:36:28;23.02;;;15.32;;
19940;SDS011;10132;50.864;5.176;2022-08-01T05:38:31;18.45;;;13.93;;
19940;SDS011;10132;50.864;5.176;2022-08-01T05:40:33;18.13;;;14.27;;
19940;SDS011;10132;50.864;5.176;2022-08-01T05:42:37;16.05;;;13.60;;
19940;SDS011;10132;50.864;5.176;2022-08-01T05:44:39;22.63;;;14.90;;
19940;SDS011;10132;50.864;5.176;2022-08-01T05:46:41;19.58;;;14.70;;
19940;SDS011;10132;50.864;5.176;2022-08-01T05:48:43;19.98;;;14.65;;
19940;SDS011;10132;50.864;5.176;2022-08-01T05:50:45;20.52;;;14.68;;
19940;SDS011;10132;50.864;5.176;2022-08-01T05:52:47;23.70;;;15.93;;
19940;SDS011;10132;50.864;5.176;2022-08-01T05:54:51;22.75;;;15.75;;
19940;SDS011;10132;50.864;5.176;2022-08-01T05:56:52;19.40;;;14.50;;
19940;SDS011;10132;50.864;5.176;2022-08-01T05:58:59;19.08;;;13.50;;
19940;SDS011;10132;50.864;5.176;2022-08-01T06:01:01;17.65;;;13.85;;
19940;SDS011;10132;50.864;5.176;2022-08-01T06:03:03;16.50;;;13.48;;
19940;SDS011;10132;50.864;5.176;2022-08-01T06:05:05;15.02;;;12.23;;
19940;SDS011;10132;50.864;5.176;2022-08-01T06:07:08;17.38;;;12.90;;
19940;SDS011;10132;50.864;5.176;2022-08-01T06:09:09;15.88;;;12.18;;
19940;SDS011;10132;50.864;5.176;2022-08-01T06:11:13;14.88;;;11.27;;
19940;SDS011;10132;50.864;5.176;2022-08-01T06:13:15;17.60;;;11.10;;
19940;SDS011;10132;50.864;5.176;2022-08-01T06:15:18;12.15;;;9.77;;
19940;SDS011;10132;50.864;5.176;2022-08-01T06:17:21;12.98;;;10.10;;
19940;SDS011;10132;50.864;5.176;2022-08-01T06:19:23;13.63;;;10.35;;
19940;SDS011;10132;50.864;5.176;2022-08-01T06:21:26;12.43;;;9.77;;
19940;SDS011;10132;50.864;5.176;2022-08-01T06:23:28;12.20;;;10.00;;
19940;SDS011;10132;50.864;5.176;2022-08-01T06:25:30;11.75;;;9.10;;
19940;SDS011;10132;50.864;5.176;2022-08-01T06:27:34;13.40;;;9.50;;
19940;SDS011;10132;50.864;5.176;2022-08-01T06:29:36;11.10;;;9.88;;
19940;SDS011;10132;50.864;5.176;2022-08-01T06:31:38;11.57;;;9.45;;
19940;SDS011;10132;50.864;5.176;2022-08-01T06:33:40;13.00;;;7.93;;
19940;SDS011;10132;50.864;5.176;2022-08-01T06:35:42;9.18;;;6.75;;
19940;SDS011;10132;50.864;5.176;2022-08-01T06:37:44;6.93;;;4.47;;
19940;SDS011;10132;50.864;5.176;2022-08-01T06:39:47;7.00;;;5.05;;
19940;SDS011;10132;50.864;5.176;2022-08-01T06:41:49;6.18;;;5.05;;
19940;SDS011;10132;50.864;5.176;2022-08-01T06:43:52;7.07;;;5.68;;
19940;SDS011;10132;50.864;5.176;2022-08-01T06:45:54;7.70;;;5.40;;
19940;SDS011;10132;50.864;5.176;2022-08-01T06:47:56;7.47;;;5.20;;
19940;SDS011;10132;50.864;5.176;2022-08-01T06:49:58;6.93;;;5.88;;
19940;SDS011;10132;50.864;5.176;2022-08-01T06:52:00;6.72;;;6.13;;
19940;SDS011;10132;50.864;5.176;2022-08-01T06:54:03;6.50;;;5.85;;
19940;SDS011;10132;50.864;5.176;2022-08-01T06:56:06;8.05;;;6.38;;
19940;SDS011;10132;50.864;5.176;2022-08-01T06:58:09;7.30;;;6.60;;
19940;SDS011;10132;50.864;5.176;2022-08-01T07:00:13;8.70;;;7.50;;
19940;SDS011;10132;50.864;5.176;2022-08-01T07:02:18;8.30;;;7.50;;
19940;SDS011;10132;50.864;5.176;2022-08-01T07:04:20;11.20;;;7.38;;
19940;SDS011;10132;50.864;5.176;2022-08-01T07:06:22;9.20;;;7.20;;
19940;SDS011;10132;50.864;5.176;2022-08-01T07:08:25;9.38;;;7.32;;
19940;SDS011;10132;50.864;5.176;2022-08-01T07:10:27;9.35;;;7.10;;
19940;SDS011;10132;50.864;5.176;2022-08-01T07:12:29;9.48;;;8.25;;
19940;SDS011;10132;50.864;5.176;2022-08-01T07:14:32;9.93;;;7.00;;
19940;SDS011;10132;50.864;5.176;2022-08-01T07:16:36;8.75;;;7.35;;
19940;SDS011;10132;50.864;5.176;2022-08-01T07:18:38;10.68;;;7.88;;
19940;SDS011;10132;50.864;5.176;2022-08-01T07:20:40;9.57;;;7.60;;
19940;SDS011;10132;50.864;5.176;2022-08-01T07:22:42;10.05;;;7.40;;
19940;SDS011;10132;50.864;5.176;2022-08-01T07:24:44;11.98;;;8.05;;
19940;SDS011;10132;50.864;5.176;2022-08-01T07:26:47;9.45;;;7.93;;
19940;SDS011;10132;50.864;5.176;2022-08-01T07:28:50;10.48;;;8.52;;
19940;SDS011;10132;50.864;5.176;2022-08-01T07:30:52;9.15;;;7.55;;
19940;SDS011;10132;50.864;5.176;2022-08-01T07:32:55;9.40;;;8.30;;
19940;SDS011;10132;50.864;5.176;2022-08-01T07:34:57;10.95;;;8.45;;
19940;SDS011;10132;50.864;5.176;2022-08-01T07:36:59;9.45;;;8.45;;
19940;SDS011;10132;50.864;5.176;2022-08-01T07:39:01;10.77;;;8.77;;
19940;SDS011;10132;50.864;5.176;2022-08-01T07:41:03;11.18;;;8.70;;
19940;SDS011;10132;50.864;5.176;2022-08-01T07:43:05;11.65;;;7.60;;
19940;SDS011;10132;50.864;5.176;2022-08-01T07:45:07;13.48;;;8.32;;
19940;SDS011;10132;50.864;5.176;2022-08-01T07:47:10;11.98;;;8.23;;
19940;SDS011;10132;50.864;5.176;2022-08-01T07:49:13;9.27;;;8.15;;
19940;SDS011;10132;50.864;5.176;2022-08-01T07:51:15;10.20;;;7.40;;
19940;SDS011;10132;50.864;5.176;2022-08-01T07:53:17;8.20;;;6.85;;
19940;SDS011;10132;50.864;5.176;2022-08-01T07:55:19;10.98;;;7.90;;
19940;SDS011;10132;50.864;5.176;2022-08-01T07:57:21;10.35;;;7.72;;
19940;SDS011;10132;50.864;5.176;2022-08-01T07:59:23;8.73;;;7.72;;
19940;SDS011;10132;50.864;5.176;2022-08-01T08:01:25;9.90;;;7.82;;
19940;SDS011;10132;50.864;5.176;2022-08-01T08:03:27;10.27;;;7.35;;
19940;SDS011;10132;50.864;5.176;2022-08-01T08:05:30;7.72;;;6.47;;
19940;SDS011;10132;50.864;5.176;2022-08-01T08:07:35;6.80;;;6.20;;
19940;SDS011;10132;50.864;5.176;2022-08-01T08:09:37;7.55;;;5.72;;
19940;SDS011;10132;50.864;5.176;2022-08-01T08:11:39;7.47;;;5.70;;
19940;SDS011;10132;50.864;5.176;2022-08-01T08:13:40;9.38;;;6.32;;
19940;SDS011;10132;50.864;5.176;2022-08-01T08:15:42;6.28;;;5.40;;
19940;SDS011;10132;50.864;5.176;2022-08-01T08:17:44;8.63;;;6.13;;
19940;SDS011;10132;50.864;5.176;2022-08-01T08:19:46;8.38;;;5.65;;
19940;SDS011;10132;50.864;5.176;2022-08-01T08:21:50;6.10;;;5.35;;
19940;SDS011;10132;50.864;5.176;2022-08-01T08:23:51;6.07;;;5.03;;
19940;SDS011;10132;50.864;5.176;2022-08-01T08:26:11;7.05;;;4.90;;
19940;SDS011;10132;50.864;5.176;2022-08-01T08:28:12;5.88;;;4.32;;
19940;SDS011;10132;50.864;5.176;2022-08-01T08:30:14;6.25;;;4.30;;
19940;SDS011;10132;50.864;5.176;2022-08-01T08:32:16;5.15;;;4.65;;
19940;SDS011;10132;50.864;5.176;2022-08-01T08:34:18;5.82;;;4.25;;
19940;SDS011;10132;50.864;5.176;2022-08-01T08:36:20;6.15;;;4.38;;
19940;SDS011;10132;50.864;5.176;2022-08-01T08:38:24;5.05;;;4.13;;
19940;SDS011;10132;50.864;5.176;2022-08-01T08:40:29;6.18;;;4.93;;
19940;SDS011;10132;50.864;5.176;2022-08-01T08:42:31;7.85;;;4.82;;
19940;SDS011;10132;50.864;5.176;2022-08-01T08:44:33;5.22;;;4.72;;
19940;SDS011;10132;50.864;5.176;2022-08-01T08:46:38;5.60;;;4.45;;
19940;SDS011;10132;50.864;5.176;2022-08-01T08:48:42;5.28;;;4.75;;
19940;SDS011;10132;50.864;5.176;2022-08-01T08:50:45;5.70;;;4.68;;
19940;SDS011;10132;50.864;5.176;2022-08-01T08:52:47;6.72;;;4.80;;
19940;SDS011;10132;50.864;5.176;2022-08-01T08:54:52;6.68;;;4.57;;
19940;SDS011;10132;50.864;5.176;2022-08-01T08:56:56;5.35;;;4.60;;
19940;SDS011;10132;50.864;5.176;2022-08-01T08:58:59;6.20;;;4.68;;
19940;SDS011;10132;50.864;5.176;2022-08-01T09:01:04;5.32;;;4.57;;
19940;SDS011;10132;50.864;5.176;2022-08-01T09:03:07;5.43;;;4.93;;
19940;SDS011;10132;50.864;5.176;2022-08-01T09:05:09;5.72;;;4.50;;
19940;SDS011;10132;50.864;5.176;2022-08-01T09:07:11;5.57;;;3.47;;
19940;SDS011;10132;50.864;5.176;2022-08-01T09:09:14;5.93;;;3.65;;
19940;SDS011;10132;50.864;5.176;2022-08-01T09:11:17;4.22;;;3.42;;
19940;SDS011;10132;50.864;5.176;2022-08-01T09:13:19;4.60;;;3.72;;
19940;SDS011;10132;50.864;5.176;2022-08-01T09:15:22;4.47;;;3.47;;
19940;SDS011;10132;50.864;5.176;2022-08-01T09:17:39;5.20;;;3.78;;
19940;SDS011;10132;50.864;5.176;2022-08-01T09:19:42;4.55;;;3.33;;
19940;SDS011;10132;50.864;5.176;2022-08-01T09:21:55;5.22;;;3.53;;
19940;SDS011;10132;50.864;5.176;2022-08-01T09:23:58;5.93;;;3.53;;
19940;SDS011;10132;50.864;5.176;2022-08-01T09:26:02;5.07;;;3.50;;
19940;SDS011;10132;50.864;5.176;2022-08-01T09:28:06;4.50;;;3.28;;
19940;SDS011;10132;50.864;5.176;2022-08-01T09:30:09;4.90;;;3.40;;
19940;SDS011;10132;50.864;5.176;2022-08-01T09:32:14;5.00;;;3.53;;
19940;SDS011;10132;50.864;5.176;2022-08-01T09:34:16;6.57;;;3.42;;
19940;SDS011;10132;50.864;5.176;2022-08-01T09:36:26;5.32;;;3.58;;
19940;SDS011;10132;50.864;5.176;2022-08-01T09:38:44;4.13;;;2.83;;
19940;SDS011;10132;50.864;5.176;2022-08-01T09:40:47;3.55;;;2.90;;
19940;SDS011;10132;50.864;5.176;2022-08-01T09:42:51;4.28;;;3.10;;
19940;SDS011;10132;50.864;5.176;2022-08-01T09:47:36;3.35;;;2.80;;
19940;SDS011;10132;50.864;5.176;2022-08-01T09:49:39;4.90;;;2.90;;
19940;SDS011;10132;50.864;5.176;2022-08-01T09:51:42;2.90;;;2.60;;
19940;SDS011;10132;50.864;5.176;2022-08-01T09:53:47;3.17;;;2.88;;
19940;SDS011;10132;50.864;5.176;2022-08-01T09:55:50;3.88;;;2.95;;
19940;SDS011;10132;50.864;5.176;2022-08-01T09:57:54;4.05;;;2.90;;
19940;SDS011;10132;50.864;5.176;2022-08-01T10:00:00;2.63;;;2.42;;
19940;SDS011;10132;50.864;5.176;2022-08-01T10:02:04;3.08;;;2.50;;
19940;SDS011;10132;50.864;5.176;2022-08-01T10:04:07;2.75;;;2.42;;
19940;SDS011;10132;50.864;5.176;2022-08-01T10:06:20;4.72;;;2.38;;
19940;SDS011;10132;50.864;5.176;2022-08-01T10:08:22;2.13;;;1.90;;
19940;SDS011;10132;50.864;5.176;2022-08-01T10:10:25;3.20;;;2.03;;
19940;SDS011;10132;50.864;5.176;2022-08-01T10:12:28;3.63;;;1.90;;
19940;SDS011;10132;50.864;5.176;2022-08-01T10:14:30;2.75;;;2.00;;
19940;SDS011;10132;50.864;5.176;2022-08-01T10:16:34;2.53;;;1.58;;
19940;SDS011;10132;50.864;5.176;2022-08-01T10:18:36;2.20;;;1.50;;
19940;SDS011;10132;50.864;5.176;2022-08-01T10:20:40;2.22;;;1.80;;
19940;SDS011;10132;50.864;5.176;2022-08-01T10:22:43;3.03;;;1.70;;
19940;SDS011;10132;50.864;5.176;2022-08-01T10:24:46;1.60;;;1.50;;
19940;SDS011;10132;50.864;5.176;2022-08-01T10:26:50;2.05;;;1.45;;
19940;SDS011;10132;50.864;5.176;2022-08-01T10:28:54;2.28;;;1.50;;
19940;SDS011;10132;50.864;5.176;2022-08-01T10:30:57;2.05;;;1.40;;
19940;SDS011;10132;50.864;5.176;2022-08-01T10:33:00;2.33;;;1.50;;
19940;SDS011;10132;50.864;5.176;2022-08-01T10:35:03;3.40;;;1.70;;
19940;SDS011;10132;50.864;5.176;2022-08-01T10:37:07;3.08;;;1.65;;
19940;SDS011;10132;50.864;5.176;2022-08-01T10:39:10;1.73;;;1.40;;
19940;SDS011;10132;50.864;5.176;2022-08-01T10:41:13;1.50;;;1.40;;
19940;SDS011;10132;50.864;5.176;2022-08-01T10:43:16;1.92;;;1.63;;
19940;SDS011;10132;50.864;5.176;2022-08-01T10:45:18;1.30;;;1.30;;
19940;SDS011;10132;50.864;5.176;2022-08-01T10:47:23;1.98;;;1.75;;
19940;SDS011;10132;50.864;5.176;2022-08-01T10:49:41;1.70;;;1.60;;
19940;SDS011;10132;50.864;5.176;2022-08-01T10:51:46;1.80;;;1.30;;
19940;SDS011;10132;50.864;5.176;2022-08-01T10:53:50;1.95;;;1.50;;
19940;SDS011;10132;50.864;5.176;2022-08-01T10:55:57;1.60;;;1.50;;
19940;SDS011;10132;50.864;5.176;2022-08-01T10:58:00;1.77;;;1.33;;
19940;SDS011;10132;50.864;5.176;2022-08-01T11:00:10;1.60;;;1.50;;
19940;SDS011;10132;50.864;5.176;2022-08-01T11:02:28;1.45;;;1.30;;
19940;SDS011;10132;50.864;5.176;2022-08-01T11:04:32;3.58;;;1.40;;
19940;SDS011;10132;50.864;5.176;2022-08-01T11:06:54;1.50;;;1.40;;
19940;SDS011;10132;50.864;5.176;2022-08-01T11:11:27;1.30;;;1.20;;
19940;SDS011;10132;50.864;5.176;2022-08-01T11:18:30;1.30;;;1.20;;
19940;SDS011;10132;50.864;5.176;2022-08-01T11:20:34;1.45;;;1.27;;
19940;SDS011;10132;50.864;5.176;2022-08-01T11:25:25;1.20;;;1.10;;
19940;SDS011;10132;50.864;5.176;2022-08-01T11:27:28;1.10;;;1.10;;
19940;SDS011;10132;50.864;5.176;2022-08-01T11:29:31;2.05;;;1.33;;
19940;SDS011;10132;50.864;5.176;2022-08-01T11:31:33;1.98;;;1.05;;
19940;SDS011;10132;50.864;5.176;2022-08-01T11:33:47;1.40;;;1.30;;
19940;SDS011;10132;50.864;5.176;2022-08-01T11:38:24;2.55;;;1.00;;
19940;SDS011;10132;50.864;5.176;2022-08-01T11:40:28;1.02;;;1.00;;
19940;SDS011;10132;50.864;5.176;2022-08-01T11:42:30;1.45;;;1.30;;
19940;SDS011;10132;50.864;5.176;2022-08-01T11:44:33;1.92;;;1.20;;
19940;SDS011;10132;50.864;5.176;2022-08-01T11:46:51;1.38;;;1.10;;
19940;SDS011;10132;50.864;5.176;2022-08-01T11:51:30;2.33;;;1.17;;
19940;SDS011;10132;50.864;5.176;2022-08-01T11:53:33;1.38;;;1.00;;
19940;SDS011;10132;50.864;5.176;2022-08-01T11:55:46;1.02;;;0.90;;
19940;SDS011;10132;50.864;5.176;2022-08-01T11:57:49;1.02;;;0.98;;
19940;SDS011;10132;50.864;5.176;2022-08-01T11:59:59;1.33;;;0.88;;
19940;SDS011;10132;50.864;5.176;2022-08-01T12:02:04;1.48;;;0.90;;
19940;SDS011;10132;50.864;5.176;2022-08-01T12:04:17;2.83;;;0.90;;
19940;SDS011;10132;50.864;5.176;2022-08-01T12:06:26;1.20;;;1.00;;
19940;SDS011;10132;50.864;5.176;2022-08-01T12:08:32;1.15;;;0.95;;
19940;SDS011;10132;50.864;5.176;2022-08-01T12:10:36;1.17;;;0.88;;
19940;SDS011;10132;50.864;5.176;2022-08-01T12:12:42;1.17;;;0.80;;
19940;SDS011;10132;50.864;5.176;2022-08-01T12:14:45;1.75;;;0.90;;
19940;SDS011;10132;50.864;5.176;2022-08-01T12:16:54;2.10;;;0.90;;
19940;SDS011;10132;50.864;5.176;2022-08-01T12:18:56;2.78;;;0.88;;
19940;SDS011;10132;50.864;5.176;2022-08-01T12:21:02;2.00;;;0.77;;
19940;SDS011;10132;50.864;5.176;2022-08-01T12:23:06;1.05;;;0.93;;
19940;SDS011;10132;50.864;5.176;2022-08-01T12:25:11;0.90;;;0.90;;
19940;SDS011;10132;50.864;5.176;2022-08-01T12:27:23;1.00;;;0.90;;
19940;SDS011;10132;50.864;5.176;2022-08-01T12:29:36;1.38;;;1.10;;
19940;SDS011;10132;50.864;5.176;2022-08-01T12:31:39;1.38;;;1.00;;
19940;SDS011;10132;50.864;5.176;2022-08-01T12:33:41;1.13;;;1.02;;
19940;SDS011;10132;50.864;5.176;2022-08-01T12:35:43;1.77;;;1.02;;
19940;SDS011;10132;50.864;5.176;2022-08-01T12:37:45;0.90;;;0.90;;
19940;SDS011;10132;50.864;5.176;2022-08-01T12:39:48;3.70;;;0.98;;
19940;SDS011;10132;50.864;5.176;2022-08-01T12:41:52;2.03;;;1.00;;
19940;SDS011;10132;50.864;5.176;2022-08-01T12:43:54;1.75;;;1.13;;